createdAt,value
2022-09-07T00:07:29.076Z,7.28
2022-09-07T00:10:08.204Z,7.95
2022-09-07T00:42:49.914Z,11.05
2022-09-07T00:51:29.397Z,8.50
2022-09-07T01:08:28.355Z,9.43
2022-09-07T01:12:05.169Z,10.27
2022-09-07T01:15:49.046Z,12.68
2022-09-07T01:22:20.911Z,11.10
2022-09-07T01:25:26.373Z,14.77
2022-09-07T01:28:36.912Z,12.15
2022-09-07T01:31:35.531Z,14.70
2022-09-07T01:34:23.675Z,11.27
2022-09-07T01:37:20.743Z,11.27
2022-09-07T01:40:07.304Z,10.68
2022-09-07T01:42:56.914Z,11.13
2022-09-07T01:45:34.888Z,11.73
2022-09-07T01:48:16.110Z,10.43
2022-09-07T01:51:14.346Z,9.45
2022-09-07T01:54:06.986Z,22.23
2022-09-07T01:56:49.747Z,12.80
2022-09-07T01:59:53.258Z,8.45
2022-09-07T02:02:35.670Z,9.40
2022-09-07T02:05:20.280Z,11.70
2022-09-07T02:08:24.711Z,12.18
2022-09-07T02:11:21.798Z,13.05
2022-09-07T02:14:15.734Z,15.00
2022-09-07T02:17:21.181Z,14.27
2022-09-07T02:20:08.190Z,16.48
2022-09-07T02:23:02.732Z,16.85
2022-09-07T02:25:52.667Z,17.58
2022-09-07T02:28:35.638Z,17.45
2022-09-07T02:31:22.494Z,18.92
2022-09-07T02:34:20.319Z,15.00
2022-09-07T02:36:58.682Z,15.68
2022-09-07T02:39:37.468Z,15.38
2022-09-07T02:42:44.541Z,14.77
2022-09-07T02:45:25.878Z,16.15
2022-09-07T02:48:34.057Z,15.48
2022-09-07T02:51:40.565Z,16.67
2022-09-07T02:54:56.862Z,13.15
2022-09-07T02:58:04.562Z,15.75
2022-09-07T03:04:38.196Z,16.15
2022-09-07T03:07:23.876Z,16.48
2022-09-07T03:10:10.592Z,18.00
2022-09-07T03:13:07.516Z,18.05
2022-09-07T03:15:56.391Z,16.90
2022-09-07T03:21:48.247Z,18.23
2022-09-07T03:24:34.747Z,19.17
2022-09-07T03:27:10.395Z,18.05
2022-09-07T03:29:49.016Z,16.27
2022-09-07T03:32:47.703Z,17.70
2022-09-07T03:35:39.633Z,16.60
2022-09-07T03:38:38.272Z,16.48
2022-09-07T03:41:09.468Z,16.70
2022-09-07T03:43:56.177Z,15.40
2022-09-07T03:46:43.092Z,17.98
2022-09-07T03:49:16.383Z,19.25
2022-09-07T03:51:50.752Z,16.65
2022-09-07T03:54:29.324Z,17.73
2022-09-07T03:57:07.228Z,16.90
2022-09-07T03:59:47.994Z,20.33
2022-09-07T04:02:26.389Z,19.15
2022-09-07T04:05:05.793Z,19.55
2022-09-07T04:07:49.184Z,17.10
2022-09-07T04:10:39.683Z,18.40
2022-09-07T04:13:14.719Z,18.10
2022-09-07T04:15:53.971Z,17.83
2022-09-07T04:18:32.036Z,17.83
2022-09-07T04:21:12.731Z,15.90
2022-09-07T04:23:56.470Z,22.10
2022-09-07T04:26:38.757Z,14.95
2022-09-07T04:29:21.086Z,14.05
2022-09-07T04:31:55.608Z,16.55
2022-09-07T04:34:38.456Z,14.68
2022-09-07T04:37:19.685Z,15.82
2022-09-07T04:40:00.761Z,14.05
2022-09-07T04:42:45.068Z,14.57
2022-09-07T04:45:24.092Z,13.82
2022-09-07T04:47:54.417Z,13.40
2022-09-07T04:50:35.442Z,12.50
2022-09-07T04:53:14.199Z,19.15
2022-09-07T04:55:56.419Z,12.75
2022-09-07T04:58:50.555Z,12.40
2022-09-07T05:01:29.078Z,12.90
2022-09-07T05:04:08.054Z,12.32
2022-09-07T05:06:45.997Z,13.10
2022-09-07T05:09:34.449Z,13.23
2022-09-07T05:12:17.932Z,12.30
2022-09-07T05:17:40.086Z,10.88
2022-09-07T05:20:11.894Z,11.75
2022-09-07T05:22:48.517Z,11.38
2022-09-07T05:25:17.254Z,14.13
2022-09-07T05:27:56.843Z,16.42
2022-09-07T05:33:17.618Z,14.85
2022-09-07T05:35:57.770Z,13.68
2022-09-07T05:38:29.517Z,14.25
2022-09-07T05:41:00.062Z,15.13
2022-09-07T05:43:29.102Z,14.88
2022-09-07T05:45:58.866Z,15.02
2022-09-07T05:48:30.185Z,13.68
2022-09-07T05:51:09.700Z,14.68
2022-09-07T05:53:40.897Z,13.45
2022-09-07T05:59:18.460Z,10.30
2022-09-07T06:01:59.755Z,12.57
2022-09-07T06:04:57.150Z,13.90
2022-09-07T06:07:25.940Z,13.90
2022-09-07T06:12:49.280Z,18.55
2022-09-07T06:15:23.742Z,13.50
2022-09-07T06:17:52.892Z,14.32
2022-09-07T06:20:29.869Z,12.00
2022-09-07T06:23:00.450Z,11.95
2022-09-07T06:25:32.567Z,18.00
2022-09-07T06:28:02.482Z,20.65
2022-09-07T06:30:34.393Z,11.98
2022-09-07T06:33:05.639Z,13.18
2022-09-07T06:35:38.532Z,12.10
2022-09-07T06:38:16.272Z,14.85
2022-09-07T06:40:50.310Z,11.93
2022-09-07T06:43:26.958Z,30.17
2022-09-07T06:48:47.471Z,42.45
2022-09-07T06:51:21.790Z,13.30
2022-09-07T06:53:51.105Z,30.63
2022-09-07T06:56:23.718Z,17.77
2022-09-07T06:59:01.621Z,22.92
2022-09-07T07:01:33.021Z,81.88
2022-09-07T07:04:02.579Z,15.27
2022-09-07T07:06:40.123Z,34.47
2022-09-07T07:09:13.568Z,11.57
2022-09-07T07:11:44.252Z,11.80
2022-09-07T07:14:17.392Z,11.60
2022-09-07T07:16:48.832Z,11.73
2022-09-07T07:19:20.294Z,12.82
2022-09-07T07:24:40.993Z,17.25
2022-09-07T07:27:12.823Z,9.77
2022-09-07T07:29:46.537Z,10.50
2022-09-07T07:32:18.285Z,10.05
2022-09-07T07:34:52.960Z,10.98
2022-09-07T07:37:28.298Z,78.88
2022-09-07T07:40:19.816Z,13.07
2022-09-07T07:42:53.938Z,11.45
2022-09-07T07:48:13.429Z,13.02
2022-09-07T07:50:42.525Z,13.15
2022-09-07T07:56:03.091Z,10.60
2022-09-07T07:58:33.722Z,10.35
2022-09-07T08:01:14.351Z,86.97
2022-09-07T08:03:44.815Z,607.67
2022-09-07T08:06:23.128Z,143.38
2022-09-07T08:08:56.626Z,477.92
2022-09-07T08:11:26.593Z,999.90
2022-09-07T08:13:56.610Z,550.55
2022-09-07T08:16:31.129Z,523.05
2022-09-07T08:19:03.377Z,868.22
2022-09-07T08:21:32.960Z,999.90
2022-09-07T08:24:05.558Z,999.90
2022-09-07T08:26:35.250Z,999.90
2022-09-07T08:29:04.395Z,999.90
2022-09-07T08:31:36.093Z,970.83
2022-09-07T08:34:05.043Z,999.90
2022-09-07T08:36:34.243Z,999.90
2022-09-07T08:39:07.638Z,999.90
2022-09-07T08:41:50.456Z,999.90
2022-09-07T08:44:39.829Z,999.90
2022-09-07T08:47:31.554Z,999.90
2022-09-07T08:50:34.184Z,999.90
2022-09-07T08:53:10.397Z,999.90
2022-09-07T08:55:58.897Z,999.90
2022-09-07T08:58:56.871Z,865.92
2022-09-07T09:01:42.227Z,965.50
2022-09-07T09:04:32.269Z,999.90
2022-09-07T09:07:17.202Z,999.90
2022-09-07T09:10:10.877Z,999.90
2022-09-07T09:12:55.903Z,999.90
2022-09-07T09:15:33.948Z,999.90
2022-09-07T09:18:38.475Z,999.90
2022-09-07T09:21:16.171Z,999.90
2022-09-07T09:23:48.902Z,999.90
2022-09-07T09:26:32.335Z,999.90
2022-09-07T09:29:25.167Z,999.90
2022-09-07T09:31:58.879Z,999.90
2022-09-07T09:34:34.687Z,999.90
2022-09-07T09:37:06.303Z,999.90
2022-09-07T09:39:39.162Z,999.90
2022-09-07T09:42:30.828Z,999.90
2022-09-07T09:45:22.123Z,999.90
2022-09-07T09:47:57.921Z,999.90
2022-09-07T09:53:56.637Z,999.90
2022-09-07T09:56:42.987Z,999.90
2022-09-07T10:05:37.984Z,999.90
2022-09-07T10:08:31.643Z,999.90
2022-09-07T10:11:08.941Z,999.90
2022-09-07T10:13:44.445Z,999.90
2022-09-07T10:16:13.965Z,999.90
2022-09-07T10:18:58.679Z,999.90
2022-09-07T10:21:34.047Z,999.90
2022-09-07T10:24:12.153Z,999.90
2022-09-07T10:26:44.064Z,999.90
2022-09-07T10:29:13.377Z,999.90
2022-09-07T10:31:58.077Z,999.90
2022-09-07T10:34:48.986Z,999.90
2022-09-07T10:37:43.014Z,999.90
2022-09-07T10:40:26.856Z,999.90
2022-09-07T10:43:22.103Z,999.90
2022-09-07T10:46:09.518Z,999.90
2022-09-07T10:48:39.148Z,999.90
2022-09-07T10:51:21.762Z,999.90
2022-09-07T10:54:34.535Z,999.90
2022-09-07T10:57:29.483Z,999.90
2022-09-07T11:00:12.334Z,999.90
2022-09-07T11:06:13.366Z,999.90
2022-09-07T11:12:07.658Z,999.90
2022-09-07T11:14:49.621Z,999.90
2022-09-07T11:17:27.367Z,999.90
2022-09-07T11:20:13.513Z,999.90
2022-09-07T11:23:23.419Z,999.90
2022-09-07T11:26:04.648Z,999.90
2022-09-07T11:28:47.608Z,999.90
2022-09-07T11:31:30.304Z,999.90
2022-09-07T11:34:24.808Z,999.90
2022-09-07T11:37:28.152Z,999.90
2022-09-07T11:40:00.393Z,999.90
2022-09-07T11:42:48.833Z,999.90
2022-09-07T11:45:31.043Z,999.90
2022-09-07T11:48:19.497Z,999.90
2022-09-07T11:50:58.419Z,999.90
2022-09-07T11:53:42.619Z,999.90
2022-09-07T11:56:46.023Z,999.90
2022-09-07T11:59:37.011Z,999.90
2022-09-07T12:02:32.222Z,999.90
2022-09-07T12:05:50.332Z,999.90
2022-09-07T12:08:22.754Z,999.90
2022-09-07T12:11:07.045Z,999.90
2022-09-07T12:14:06.309Z,999.90
2022-09-07T12:17:10.532Z,999.90
2022-09-07T12:19:39.778Z,999.90
2022-09-07T12:22:29.046Z,999.90
2022-09-07T12:25:15.241Z,999.90
2022-09-07T12:27:59.956Z,999.90
2022-09-07T12:30:32.635Z,999.90
2022-09-07T12:33:22.529Z,999.90
2022-09-07T12:36:02.218Z,999.90
2022-09-07T12:38:37.553Z,999.90
2022-09-07T12:41:40.289Z,999.90
2022-09-07T12:44:19.319Z,999.90
2022-09-07T12:46:53.431Z,999.90
2022-09-07T12:49:48.842Z,999.90
2022-09-07T12:52:27.463Z,999.90
2022-09-07T12:55:28.481Z,999.90
2022-09-07T12:58:09.687Z,999.90
2022-09-07T13:01:05.722Z,999.90
2022-09-07T13:04:01.429Z,999.90
2022-09-07T13:07:06.835Z,999.90
2022-09-07T13:09:54.307Z,999.90
2022-09-07T13:16:13.014Z,999.90
2022-09-07T13:18:48.175Z,999.90
2022-09-07T13:21:21.673Z,999.90
2022-09-07T13:27:22.692Z,999.90
2022-09-07T13:30:42.380Z,999.90
2022-09-07T13:34:08.037Z,999.90
2022-09-07T13:37:34.955Z,999.90
2022-09-07T13:40:35.212Z,999.90
2022-09-07T13:43:50.273Z,999.90
2022-09-07T13:58:04.076Z,999.90
2022-09-07T14:01:04.596Z,999.90
2022-09-07T14:04:37.349Z,999.90
2022-09-07T14:08:03.581Z,999.90
2022-09-07T14:11:28.830Z,999.90
2022-09-07T14:14:25.884Z,999.90
2022-09-07T14:17:08.910Z,999.90
2022-09-07T14:20:08.786Z,999.90
2022-09-07T14:23:10.480Z,999.90
2022-09-07T14:26:45.349Z,999.90
2022-09-07T14:29:55.985Z,999.90
2022-09-07T14:33:16.255Z,999.90
2022-09-07T14:36:42.395Z,999.90
2022-09-07T14:40:04.934Z,999.90
2022-09-07T14:43:31.968Z,999.90
2022-09-07T14:46:56.583Z,999.90
2022-09-07T14:49:51.028Z,999.90
2022-09-07T15:00:18.861Z,999.90
2022-09-07T15:03:13.750Z,999.90
2022-09-07T15:20:04.504Z,999.90
2022-09-07T15:22:40.718Z,999.90
2022-09-07T15:33:34.072Z,999.90
2022-09-07T15:39:44.176Z,999.90
2022-09-07T15:43:23.042Z,999.90
2022-09-07T15:45:58.935Z,999.90
2022-09-07T15:48:36.613Z,999.90
2022-09-07T15:54:11.546Z,999.90
2022-09-07T16:14:38.420Z,999.90
2022-09-07T16:50:21.875Z,812.20
